Time;durP1;ratioP1;P1;durP2;ratioP2;P2;SDS_P1;SDS_P2;PMS_P1;PMS_P2;Temp;Humidity;BMP_temperature;BMP_pressure;BME280_temperature;BME280_humidity;BME280_pressure;Samples;Min_cycle;Max_cycle;Signal;HPM_P1;HPM_P2
2022/05/23 00:01:19;;;;;;;4.57;1.15;;;;;;;;;;4973984;28;20155;-73
2022/05/23 00:03:47;;;;;;;3.53;0.90;;;;;;;;;;4973630;28;20105;-74
2022/05/23 00:06:20;;;;;;;3.00;0.75;;;;;;;;;;4973853;28;20500;-74
2022/05/23 00:08:47;;;;;;;4.13;1.10;;;;;;;;;;4973931;28;20452;-73
2022/05/23 00:11:15;;;;;;;3.55;0.70;;;;;;;;;;4972369;28;20475;-73
2022/05/23 00:13:42;;;;;;;4.55;0.77;;;;;;;;;;4973698;28;20051;-73
2022/05/23 00:16:10;;;;;;;2.78;0.60;;;;;;;;;;4972261;28;20531;-73
2022/05/23 00:18:37;;;;;;;4.82;1.17;;;;;;;;;;4973730;28;20476;-73
2022/05/23 00:21:04;;;;;;;2.88;0.70;;;;;;;;;;4973746;28;20050;-73
2022/05/23 00:23:31;;;;;;;5.75;1.50;;;;;;;;;;4973945;28;20038;-73
2022/05/23 00:25:59;;;;;;;7.28;1.70;;;;;;;;;;4973667;28;20033;-73
2022/05/23 00:28:26;;;;;;;4.57;1.33;;;;;;;;;;4973775;28;20027;-73
2022/05/23 00:30:53;;;;;;;5.05;1.30;;;;;;;;;;4973511;28;20027;-72
2022/05/23 00:36:05;;;;;;;8.02;2.20;;;;;;;;;;4973499;28;20074;-73
2022/05/23 00:38:33;;;;;;;4.05;1.33;;;;;;;;;;4973780;28;20022;-73
2022/05/23 00:44:05;;;;;;;7.07;1.50;;;;;;;;;;4973589;28;20050;-72
2022/05/23 00:46:32;;;;;;;4.88;1.50;;;;;;;;;;4972078;28;20539;-72
2022/05/23 00:49:03;;;;;;;3.60;1.38;;;;;;;;;;4973541;28;20478;-72
2022/05/23 00:51:31;;;;;;;3.00;1.10;;;;;;;;;;4973494;28;20392;-72
2022/05/23 00:54:00;;;;;;;2.72;0.93;;;;;;;;;;4975261;28;20026;-73
2022/05/23 00:56:31;;;;;;;2.45;0.68;;;;;;;;;;4976848;28;20058;-74
2022/05/23 00:58:58;;;;;;;;;;;;;;;;;;4976053;28;20537;-74
2022/05/23 01:01:26;;;;;;;3.38;1.05;;;;;;;;;;4976807;28;19957;-73
2022/05/23 01:03:54;;;;;;;3.05;1.00;;;;;;;;;;4976501;28;20388;-73
2022/05/23 01:06:21;;;;;;;6.93;1.70;;;;;;;;;;4975400;28;20443;-74
2022/05/23 01:08:49;;;;;;;4.15;1.63;;;;;;;;;;4975492;28;20050;-74
2022/05/23 01:11:16;;;;;;;4.60;1.38;;;;;;;;;;4976570;28;20065;-73
2022/05/23 01:13:43;;;;;;;6.32;1.33;;;;;;;;;;4976604;28;20130;-74
2022/05/23 01:16:11;;;;;;;4.80;1.10;;;;;;;;;;4975274;28;20019;-74
2022/05/23 01:18:38;;;;;;;5.88;1.38;;;;;;;;;;4976537;28;20470;-74
2022/05/23 01:21:07;;;;;;;6.55;1.75;;;;;;;;;;4976774;28;20030;-74
2022/05/23 01:23:34;;;;;;;7.50;1.50;;;;;;;;;;4975194;28;20484;-74
2022/05/23 01:26:02;;;;;;;2.78;1.10;;;;;;;;;;4976564;28;20150;-74
2022/05/23 01:28:33;;;;;;;3.58;1.05;;;;;;;;;;4976454;28;20023;-74
2022/05/23 01:31:00;;;;;;;2.97;0.70;;;;;;;;;;4976564;28;20387;-74
2022/05/23 01:33:27;;;;;;;5.78;1.08;;;;;;;;;;4976295;28;20526;-74
2022/05/23 01:35:57;;;;;;;5.03;0.88;;;;;;;;;;4976330;28;20022;-75
2022/05/23 01:38:27;;;;;;;5.03;1.55;;;;;;;;;;4976244;28;20021;-74
2022/05/23 01:40:59;;;;;;;5.38;1.60;;;;;;;;;;4976417;28;20041;-74
2022/05/23 01:43:26;;;;;;;5.13;1.42;;;;;;;;;;4974778;28;20045;-73
2022/05/23 01:45:53;;;;;;;5.45;1.73;;;;;;;;;;4976091;28;20038;-73
2022/05/23 01:48:20;;;;;;;6.60;2.03;;;;;;;;;;4975991;28;20019;-74
2022/05/23 01:50:48;;;;;;;4.95;1.80;;;;;;;;;;4976007;28;20070;-74
2022/05/23 01:53:15;;;;;;;4.03;1.92;;;;;;;;;;4976042;28;20082;-74
2022/05/23 01:55:42;;;;;;;5.47;2.53;;;;;;;;;;4975918;28;20026;-74
2022/05/23 01:58:10;;;;;;;6.78;2.17;;;;;;;;;;4976014;28;20030;-74
2022/05/23 02:03:22;;;;;;;5.78;1.80;;;;;;;;;;4975966;28;20538;-75
2022/05/23 02:05:49;;;;;;;6.93;1.60;;;;;;;;;;4973920;28;20587;-73
2022/05/23 02:08:17;;;;;;;4.72;1.50;;;;;;;;;;4975533;28;20039;-73
2022/05/23 02:10:44;;;;;;;4.88;1.90;;;;;;;;;;4975610;28;20476;-73
2022/05/23 02:13:11;;;;;;;3.30;1.00;;;;;;;;;;4975400;28;20475;-72
2022/05/23 02:15:38;;;;;;;5.60;0.90;;;;;;;;;;4975595;28;20023;-72
2022/05/23 02:18:06;;;;;;;6.50;1.27;;;;;;;;;;4974036;28;20081;-72
2022/05/23 02:20:33;;;;;;;4.85;1.20;;;;;;;;;;4975372;28;20102;-73
2022/05/23 02:23:01;;;;;;;3.95;0.98;;;;;;;;;;4975490;28;20387;-72
2022/05/23 02:25:28;;;;;;;6.20;1.27;;;;;;;;;;4975298;28;20487;-73
2022/05/23 02:27:56;;;;;;;9.45;1.50;;;;;;;;;;4975388;28;20026;-73
2022/05/23 02:30:23;;;;;;;5.82;1.63;;;;;;;;;;4974972;28;20476;-73
2022/05/23 02:32:51;;;;;;;7.75;1.63;;;;;;;;;;4975332;28;20027;-72
2022/05/23 02:35:19;;;;;;;4.75;1.10;;;;;;;;;;4975086;28;20030;-72
2022/05/23 02:37:46;;;;;;;5.10;0.85;;;;;;;;;;4975067;28;20023;-72
2022/05/23 02:40:13;;;;;;;2.90;0.60;;;;;;;;;;4973684;28;20061;-72
2022/05/23 02:42:41;;;;;;;4.35;0.85;;;;;;;;;;4975003;28;20042;-72
2022/05/23 02:45:08;;;;;;;3.60;0.60;;;;;;;;;;4973652;28;20094;-72
2022/05/23 02:47:36;;;;;;;3.45;0.68;;;;;;;;;;4974968;28;20460;-72
2022/05/23 02:50:04;;;;;;;2.38;0.60;;;;;;;;;;4973491;28;20114;-72
2022/05/23 02:52:31;;;;;;;2.45;0.55;;;;;;;;;;4973487;28;20439;-72
2022/05/23 02:54:58;;;;;;;2.40;0.40;;;;;;;;;;4974701;28;20019;-72
2022/05/23 02:57:25;;;;;;;2.75;0.70;;;;;;;;;;4974789;28;20026;-72
2022/05/23 02:59:52;;;;;;;3.05;0.70;;;;;;;;;;4974714;28;20019;-72
2022/05/23 03:05:05;;;;;;;2.47;0.75;;;;;;;;;;4974340;28;20530;-72
2022/05/23 03:07:32;;;;;;;1.88;0.50;;;;;;;;;;4974579;28;20022;-72
2022/05/23 03:09:59;;;;;;;3.70;0.52;;;;;;;;;;4974767;28;20073;-71
2022/05/23 03:12:28;;;;;;;3.17;0.75;;;;;;;;;;4974472;28;20027;-72
2022/05/23 03:14:55;;;;;;;2.47;0.60;;;;;;;;;;4974420;28;20437;-72
2022/05/23 03:17:22;;;;;;;4.15;0.85;;;;;;;;;;4973811;28;20042;-72
2022/05/23 03:19:49;;;;;;;1.73;0.60;;;;;;;;;;4974283;28;20486;-71
2022/05/23 03:27:47;;;;;;;5.55;0.70;;;;;;;;;;4974294;28;20073;-71
2022/05/23 03:30:14;;;;;;;3.17;0.80;;;;;;;;;;4972942;28;20034;-72
2022/05/23 03:32:42;;;;;;;4.72;0.80;;;;;;;;;;4974370;28;20027;-71
2022/05/23 03:35:09;;;;;;;4.95;1.25;;;;;;;;;;4974461;28;20030;-71
2022/05/23 03:37:36;;;;;;;4.80;1.10;;;;;;;;;;4972900;28;20047;-71
2022/05/23 03:40:05;;;;;;;5.22;1.33;;;;;;;;;;4972795;28;20074;-71
2022/05/23 03:42:32;;;;;;;3.97;0.80;;;;;;;;;;4974313;28;20507;-71
2022/05/23 03:44:59;;;;;;;5.20;1.17;;;;;;;;;;4974325;28;20023;-72
2022/05/23 03:47:26;;;;;;;5.57;1.10;;;;;;;;;;4974108;28;20399;-71
2022/05/23 03:49:53;;;;;;;5.75;1.15;;;;;;;;;;4972765;28;20023;-73
2022/05/23 03:52:20;;;;;;;5.60;1.00;;;;;;;;;;4973921;28;20033;-72
2022/05/23 03:54:48;;;;;;;6.97;0.93;;;;;;;;;;4973980;28;20027;-71
2022/05/23 03:57:15;;;;;;;5.00;1.02;;;;;;;;;;4973982;28;20455;-71
2022/05/23 03:59:42;;;;;;;5.28;1.10;;;;;;;;;;4973961;28;20067;-72
2022/05/23 04:02:09;;;;;;;6.93;1.65;;;;;;;;;;4973881;28;20105;-71
2022/05/23 04:04:36;;;;;;;7.95;1.50;;;;;;;;;;4972424;28;20110;-72
2022/05/23 04:07:04;;;;;;;9.57;1.10;;;;;;;;;;4974037;28;20026;-72
2022/05/23 04:09:32;;;;;;;7.00;0.85;;;;;;;;;;4973785;28;20395;-72
2022/05/23 04:12:00;;;;;;;5.50;0.73;;;;;;;;;;4973758;28;20022;-73
2022/05/23 04:14:27;;;;;;;7.05;1.13;;;;;;;;;;4973917;28;20494;-72
2022/05/23 04:16:55;;;;;;;7.10;0.90;;;;;;;;;;4972438;28;20047;-72
2022/05/23 04:19:22;;;;;;;4.72;0.60;;;;;;;;;;4972507;28;20439;-71
2022/05/23 04:21:50;;;;;;;3.47;0.60;;;;;;;;;;4973659;28;20031;-72
2022/05/23 04:24:17;;;;;;;5.85;0.90;;;;;;;;;;4974022;28;20455;-72
2022/05/23 04:26:45;;;;;;;6.68;0.52;;;;;;;;;;4973690;28;20026;-71
2022/05/23 04:29:12;;;;;;;6.40;0.90;;;;;;;;;;4977590;28;20023;-71
2022/05/23 04:31:39;;;;;;;4.03;0.73;;;;;;;;;;4977209;28;20050;-71
2022/05/23 04:36:52;;;;;;;4.78;1.17;;;;;;;;;;4977515;28;20081;-71
2022/05/23 04:39:19;;;;;;;4.15;0.77;;;;;;;;;;4976040;28;20380;-72
2022/05/23 04:41:46;;;;;;;4.95;0.70;;;;;;;;;;4977344;28;20085;-72
2022/05/23 04:44:13;;;;;;;3.53;0.90;;;;;;;;;;4975973;28;20462;-72
2022/05/23 04:49:41;;;;;;;6.22;0.90;;;;;;;;;;4977393;28;20098;-71
2022/05/23 04:49:45;;;;;;;7.22;1.00;;;;;;;;;;4977184;28;20113;-71
2022/05/23 04:52:13;;;;;;;7.25;0.80;;;;;;;;;;4977502;28;20444;-71
2022/05/23 04:54:40;;;;;;;6.05;0.95;;;;;;;;;;4977168;28;20131;-71
2022/05/23 04:57:08;;;;;;;3.97;0.65;;;;;;;;;;4976785;28;20015;-71
2022/05/23 04:59:35;;;;;;;5.03;1.00;;;;;;;;;;4975624;28;20034;-72
2022/05/23 05:02:03;;;;;;;5.38;0.93;;;;;;;;;;4975605;28;20034;-71
2022/05/23 05:04:31;;;;;;;3.33;0.65;;;;;;;;;;4976555;28;20569;-72
2022/05/23 05:06:58;;;;;;;8.23;0.98;;;;;;;;;;4976779;28;20031;-72
2022/05/23 05:09:26;;;;;;;6.82;1.10;;;;;;;;;;4975636;28;20085;-72
2022/05/23 05:11:53;;;;;;;2.55;0.50;;;;;;;;;;4976896;28;20034;-72
2022/05/23 05:14:20;;;;;;;5.38;0.80;;;;;;;;;;4976681;28;20058;-73
2022/05/23 05:16:47;;;;;;;6.15;0.60;;;;;;;;;;4976672;28;20041;-72
2022/05/23 05:19:14;;;;;;;3.85;0.75;;;;;;;;;;4975288;28;20059;-71
2022/05/23 05:21:42;;;;;;;4.78;0.60;;;;;;;;;;4976564;28;20030;-70
2022/05/23 05:24:09;;;;;;;3.60;0.73;;;;;;;;;;4976628;28;20031;-71
2022/05/23 05:26:36;;;;;;;5.40;0.75;;;;;;;;;;4976830;28;20380;-70
2022/05/23 05:29:04;;;;;;;4.50;0.70;;;;;;;;;;4976315;28;20031;-71
2022/05/23 05:31:40;;;;;;;4.95;0.88;;;;;;;;;;4976426;28;20038;-72
2022/05/23 05:34:19;;;;;;;4.90;1.10;;;;;;;;;;4976253;28;20055;-74
2022/05/23 05:36:49;;;;;;;6.65;1.30;;;;;;;;;;4975039;28;20502;-75
2022/05/23 05:39:19;;;;;;;3.15;0.98;;;;;;;;;;4974480;28;20027;-73
2022/05/23 05:41:50;;;;;;;7.30;1.25;;;;;;;;;;4975036;28;20035;-74
2022/05/23 05:44:19;;;;;;;6.88;0.80;;;;;;;;;;4976505;28;20431;-73
2022/05/23 05:46:49;;;;;;;4.65;0.80;;;;;;;;;;4976146;28;20110;-72
2022/05/23 05:49:21;;;;;;;4.85;0.68;;;;;;;;;;4974728;28;20089;-74
2022/05/23 05:51:49;;;;;;;4.53;0.80;;;;;;;;;;4974765;28;20085;-74
2022/05/23 05:54:21;;;;;;;6.53;1.02;;;;;;;;;;4975926;28;20037;-74
2022/05/23 05:56:50;;;;;;;7.75;1.38;;;;;;;;;;4974754;28;20054;-73
2022/05/23 05:59:18;;;;;;;6.82;0.90;;;;;;;;;;4975856;28;20043;-73
2022/05/23 06:01:45;;;;;;;8.95;2.25;;;;;;;;;;4974523;28;20037;-74
2022/05/23 06:04:12;;;;;;;11.75;2.35;;;;;;;;;;4974140;28;20141;-74
2022/05/23 06:12:10;;;;;;;4.03;1.05;;;;;;;;;;4975585;28;20046;-73
2022/05/23 06:14:37;;;;;;;6.32;1.40;;;;;;;;;;4975666;28;20023;-72
2022/05/23 06:17:08;;;;;;;6.75;2.28;;;;;;;;;;4974169;28;20019;-74
2022/05/23 06:19:53;;;;;;;4.90;1.70;;;;;;;;;;4974221;28;20070;-71
2022/05/23 06:22:21;;;;;;;6.18;2.03;;;;;;;;;;4974176;28;20121;-74
2022/05/23 06:24:51;;;;;;;7.65;2.50;;;;;;;;;;4974103;28;20033;-75
2022/05/23 06:27:18;;;;;;;5.25;2.22;;;;;;;;;;4974016;28;20042;-75
2022/05/23 06:29:46;;;;;;;7.25;1.98;;;;;;;;;;4975195;28;20432;-75
2022/05/23 06:32:13;;;;;;;5.60;2.08;;;;;;;;;;4973957;28;20057;-75
2022/05/23 06:34:40;;;;;;;5.47;2.13;;;;;;;;;;4975201;28;20502;-74
2022/05/23 06:37:07;;;;;;;6.25;2.60;;;;;;;;;;4973983;28;20019;-75
2022/05/23 06:39:34;;;;;;;6.53;2.85;;;;;;;;;;4975073;28;20081;-73
2022/05/23 06:42:01;;;;;;;4.78;2.05;;;;;;;;;;4975007;28;20026;-75
2022/05/23 06:44:28;;;;;;;4.00;1.23;;;;;;;;;;4975107;28;20038;-75
2022/05/23 06:46:56;;;;;;;6.13;1.63;;;;;;;;;;4974915;28;20038;-75
2022/05/23 06:49:23;;;;;;;4.13;1.73;;;;;;;;;;4974992;28;20549;-75
2022/05/23 06:51:51;;;;;;;3.90;1.63;;;;;;;;;;4972574;28;20490;-75
2022/05/23 06:54:22;;;;;;;5.40;1.58;;;;;;;;;;4974664;28;20046;-75
2022/05/23 06:56:50;;;;;;;4.63;1.40;;;;;;;;;;4973114;28;20435;-75
2022/05/23 06:59:19;;;;;;;5.40;1.10;;;;;;;;;;4973235;28;20027;-73
2022/05/23 07:01:47;;;;;;;3.30;1.08;;;;;;;;;;4973125;28;20027;-73
2022/05/23 07:04:14;;;;;;;3.47;1.02;;;;;;;;;;4974385;28;20133;-73
2022/05/23 07:12:27;;;;;;;6.38;1.23;;;;;;;;;;4974519;28;20030;-73
2022/05/23 07:14:56;;;;;;;6.35;1.48;;;;;;;;;;4973261;28;20472;-74
2022/05/23 07:17:24;;;;;;;4.33;1.23;;;;;;;;;;4973198;28;20023;-74
2022/05/23 07:19:51;;;;;;;4.90;1.45;;;;;;;;;;4974332;28;20764;-73
2022/05/23 07:22:19;;;;;;;3.65;2.17;;;;;;;;;;4973090;28;20027;-73
2022/05/23 07:24:46;;;;;;;6.32;2.30;;;;;;;;;;4974653;28;20067;-73
2022/05/23 07:27:13;;;;;;;6.03;2.03;;;;;;;;;;4973024;28;20074;-73
2022/05/23 07:29:41;;;;;;;5.13;2.40;;;;;;;;;;4974153;28;20109;-75
2022/05/23 07:32:08;;;;;;;5.60;1.85;;;;;;;;;;4974229;28;20031;-73
2022/05/23 07:34:36;;;;;;;5.65;2.40;;;;;;;;;;4974231;28;20095;-73
2022/05/23 07:37:03;;;;;;;9.68;2.75;;;;;;;;;;4974343;28;20027;-73
2022/05/23 07:39:30;;;;;;;3.70;2.08;;;;;;;;;;4972826;28;20427;-73
2022/05/23 07:41:57;;;;;;;5.60;2.30;;;;;;;;;;4973959;28;20108;-72
2022/05/23 07:44:24;;;;;;;7.03;2.45;;;;;;;;;;4973035;28;20077;-72
2022/05/23 07:46:53;;;;;;;6.43;2.72;;;;;;;;;;4974241;28;20448;-72
2022/05/23 07:49:20;;;;;;;5.45;2.30;;;;;;;;;;4973838;28;20031;-74
2022/05/23 07:51:47;;;;;;;6.20;2.50;;;;;;;;;;4973853;28;20500;-73
2022/05/23 08:02:30;;;;;;;6.65;1.70;;;;;;;;;;4975365;28;20128;-72
2022/05/23 08:04:58;;;;;;;6.22;1.60;;;;;;;;;;4977688;28;20058;-74
2022/05/23 08:07:29;;;;;;;4.20;1.80;;;;;;;;;;4977865;28;20019;-72
2022/05/23 08:10:00;;;;;;;6.75;2.83;;;;;;;;;;4977928;28;20030;-73
2022/05/23 08:12:30;;;;;;;6.13;2.15;;;;;;;;;;4977911;28;20030;-73
2022/05/23 08:14:58;;;;;;;5.35;1.45;;;;;;;;;;4976357;28;20023;-72
2022/05/23 08:17:25;;;;;;;8.55;1.98;;;;;;;;;;4977614;28;20023;-72
2022/05/23 08:19:54;;;;;;;5.15;1.70;;;;;;;;;;4977632;28;20086;-72
2022/05/23 08:22:22;;;;;;;6.75;1.92;;;;;;;;;;4977497;28;20026;-72
2022/05/23 08:24:50;;;;;;;10.82;1.70;;;;;;;;;;4977586;28;20046;-72
2022/05/23 08:27:17;;;;;;;5.63;1.20;;;;;;;;;;4976285;28;20399;-72
2022/05/23 08:29:45;;;;;;;4.35;1.50;;;;;;;;;;4977475;28;20022;-73
2022/05/23 08:32:14;;;;;;;5.85;1.45;;;;;;;;;;4977308;28;20038;-72
2022/05/23 08:34:41;;;;;;;5.95;1.80;;;;;;;;;;4976099;28;20050;-72
2022/05/23 08:37:09;;;;;;;3.15;1.35;;;;;;;;;;4977686;28;20506;-72
2022/05/23 08:39:36;;;;;;;6.55;1.23;;;;;;;;;;4977593;28;20031;-72
2022/05/23 08:42:06;;;;;;;7.60;1.67;;;;;;;;;;4975801;28;20500;-72
2022/05/23 08:44:41;;;;;;;4.20;1.23;;;;;;;;;;4975983;28;20027;-73
2022/05/23 08:47:13;;;;;;;4.60;1.52;;;;;;;;;;4975907;28;20264;-72
2022/05/23 08:49:46;;;;;;;6.22;1.77;;;;;;;;;;4977445;28;20053;-72
2022/05/23 08:52:37;;;;;;;3.75;1.52;;;;;;;;;;4977036;28;20134;-72
2022/05/23 08:55:17;;;;;;;5.70;2.10;;;;;;;;;;4975891;28;20142;-72
2022/05/23 08:57:44;;;;;;;6.47;2.47;;;;;;;;;;4977329;28;20027;-72
2022/05/23 09:00:16;;;;;;;5.15;2.15;;;;;;;;;;4976976;28;20498;-71
2022/05/23 09:02:46;;;;;;;6.03;2.35;;;;;;;;;;4977118;28;20031;-73
2022/05/23 09:05:16;;;;;;;6.63;3.08;;;;;;;;;;4976712;28;20400;-73
2022/05/23 09:07:49;;;;;;;6.05;2.40;;;;;;;;;;4975541;28;20035;-73
2022/05/23 09:10:22;;;;;;;6.55;2.45;;;;;;;;;;4976806;28;20026;-73
2022/05/23 09:12:51;;;;;;;9.32;2.72;;;;;;;;;;4977049;28;20025;-72
2022/05/23 09:15:19;;;;;;;8.18;2.70;;;;;;;;;;4974448;28;20110;-73
2022/05/23 09:17:50;;;;;;;6.78;2.03;;;;;;;;;;4975409;28;20110;-72
2022/05/23 09:20:26;;;;;;;7.50;2.90;;;;;;;;;;4976962;28;20030;-72
2022/05/23 09:22:54;;;;;;;5.20;2.53;;;;;;;;;;4976865;28;20101;-72
2022/05/23 09:25:24;;;;;;;6.55;2.50;;;;;;;;;;4976481;28;20037;-72
2022/05/23 09:27:55;;;;;;;4.47;2.08;;;;;;;;;;4976609;28;20043;-72
2022/05/23 09:30:26;;;;;;;5.93;2.47;;;;;;;;;;4976454;28;20026;-72
2022/05/23 09:33:13;;;;;;;5.25;2.50;;;;;;;;;;4975144;28;20027;-73
2022/05/23 09:35:43;;;;;;;5.32;1.70;;;;;;;;;;4976637;28;20380;-72
2022/05/23 09:38:10;;;;;;;8.77;2.43;;;;;;;;;;4974990;28;20109;-73
2022/05/23 09:40:38;;;;;;;4.95;2.55;;;;;;;;;;4976326;28;20099;-72
2022/05/23 09:49:17;;;;;;;5.40;2.33;;;;;;;;;;4976146;28;20094;-73
2022/05/23 09:51:47;;;;;;;6.53;2.45;;;;;;;;;;4974812;28;20081;-73
2022/05/23 09:54:18;;;;;;;4.68;2.40;;;;;;;;;;4976094;28;20030;-73
2022/05/23 09:56:45;;;;;;;5.57;2.72;;;;;;;;;;4976084;28;20026;-73
2022/05/23 09:59:28;;;;;;;8.43;2.88;;;;;;;;;;4975996;28;20034;-73
2022/05/23 10:01:55;;;;;;;3.58;2.15;;;;;;;;;;4974604;28;20514;-74
2022/05/23 10:04:29;;;;;;;5.35;2.28;;;;;;;;;;4974478;28;20046;-73
2022/05/23 10:06:57;;;;;;;7.03;2.40;;;;;;;;;;4975785;28;20031;-74
2022/05/23 10:09:26;;;;;;;7.15;2.55;;;;;;;;;;4975826;28;20023;-73
2022/05/23 10:11:59;;;;;;;5.43;2.35;;;;;;;;;;4974411;28;20035;-73
2022/05/23 10:14:27;;;;;;;10.20;3.97;;;;;;;;;;4974376;28;20034;-72
2022/05/23 10:16:56;;;;;;;9.25;4.57;;;;;;;;;;4974401;28;20031;-73
2022/05/23 10:19:31;;;;;;;11.73;6.38;;;;;;;;;;4975577;28;20026;-72
2022/05/23 10:22:10;;;;;;;17.08;10.98;;;;;;;;;;4975884;28;20495;-73
2022/05/23 10:24:39;;;;;;;17.13;10.13;;;;;;;;;;4974291;28;20403;-72
2022/05/23 10:27:17;;;;;;;9.53;5.03;;;;;;;;;;4975458;28;20030;-72
2022/05/23 10:29:56;;;;;;;10.20;5.40;;;;;;;;;;4975457;28;20027;-71
2022/05/23 10:32:37;;;;;;;5.43;1.90;;;;;;;;;;4974070;28;20058;-71
2022/05/23 10:35:18;;;;;;;7.25;2.33;;;;;;;;;;4974160;28;20023;-72
2022/05/23 10:37:46;;;;;;;2.97;1.60;;;;;;;;;;4975624;28;20050;-72
2022/05/23 10:43:14;;;;;;;4.85;1.98;;;;;;;;;;4975460;28;20522;-71
2022/05/23 10:46:02;;;;;;;5.40;2.40;;;;;;;;;;4975273;28;20027;-71
2022/05/23 10:48:32;;;;;;;5.75;2.38;;;;;;;;;;4974964;28;20027;-72
2022/05/23 10:51:09;;;;;;;4.45;2.28;;;;;;;;;;4975147;28;20023;-72
2022/05/23 10:53:41;;;;;;;5.45;3.25;;;;;;;;;;4973804;28;20027;-71
2022/05/23 10:56:14;;;;;;;5.30;3.10;;;;;;;;;;4974008;28;20144;-72
2022/05/23 10:59:03;;;;;;;8.48;3.47;;;;;;;;;;4973707;28;20026;-73
2022/05/23 11:01:39;;;;;;;6.15;3.35;;;;;;;;;;4973710;28;20495;-72
2022/05/23 11:04:15;;;;;;;6.90;3.17;;;;;;;;;;4973321;28;20445;-72
2022/05/23 11:06:45;;;;;;;6.93;2.60;;;;;;;;;;4974902;28;20107;-72
2022/05/23 11:09:31;;;;;;;6.10;2.20;;;;;;;;;;4973452;28;20097;-72
2022/05/23 11:12:04;;;;;;;7.13;2.72;;;;;;;;;;4973323;28;20085;-72
2022/05/23 11:14:40;;;;;;;6.50;2.42;;;;;;;;;;4973652;28;20023;-72
2022/05/23 11:17:24;;;;;;;7.05;2.53;;;;;;;;;;4974549;28;20046;-72
2022/05/23 11:20:11;;;;;;;7.00;2.65;;;;;;;;;;4974551;28;20067;-72
2022/05/23 11:22:46;;;;;;;9.85;3.30;;;;;;;;;;4973186;28;20081;-72
2022/05/23 11:25:29;;;;;;;6.97;3.38;;;;;;;;;;4974397;28;20027;-71
2022/05/23 11:33:42;;;;;;;4.63;2.30;;;;;;;;;;4974394;28;20151;-71
2022/05/23 11:36:15;;;;;;;3.70;2.40;;;;;;;;;;4974342;28;20465;-71
2022/05/23 11:38:47;;;;;;;5.25;2.00;;;;;;;;;;4973924;28;20046;-71
2022/05/23 11:41:29;;;;;;;6.18;2.13;;;;;;;;;;4974173;28;20093;-72
2022/05/23 11:43:57;;;;;;;4.30;2.15;;;;;;;;;;4972939;28;20158;-72
2022/05/23 11:46:28;;;;;;;5.05;2.00;;;;;;;;;;4974126;28;20015;-72
2022/05/23 11:48:58;;;;;;;4.22;2.10;;;;;;;;;;4972932;28;20037;-72
2022/05/23 11:51:25;;;;;;;4.82;2.30;;;;;;;;;;4974071;28;20373;-72
2022/05/23 11:53:58;;;;;;;6.05;2.30;;;;;;;;;;4974204;28;20018;-72
2022/05/23 11:56:43;;;;;;;3.33;2.00;;;;;;;;;;4974123;28;20102;-71
2022/05/23 11:59:33;;;;;;;4.80;2.30;;;;;;;;;;4974033;28;20026;-71
2022/05/23 12:02:12;;;;;;;5.07;2.45;;;;;;;;;;4973858;28;20034;-71
2022/05/23 12:04:52;;;;;;;4.60;2.60;;;;;;;;;;4973849;28;20042;-72
2022/05/23 12:07:38;;;;;;;6.57;2.67;;;;;;;;;;4973949;28;20051;-71
2022/05/23 12:10:18;;;;;;;5.07;2.58;;;;;;;;;;4974005;28;20114;-71
2022/05/23 12:12:52;;;;;;;6.47;2.35;;;;;;;;;;4973822;28;20475;-71
2022/05/23 12:15:37;;;;;;;8.25;3.30;;;;;;;;;;4972705;28;20027;-71
2022/05/23 12:18:04;;;;;;;6.72;2.78;;;;;;;;;;4973859;28;20023;-72
2022/05/23 12:20:33;;;;;;;7.90;2.75;;;;;;;;;;4973893;28;20097;-71
2022/05/23 12:23:11;;;;;;;6.97;2.90;;;;;;;;;;4972544;28;20395;-71
2022/05/23 12:25:40;;;;;;;8.20;2.78;;;;;;;;;;4973830;28;20081;-71
2022/05/23 12:28:14;;;;;;;6.18;2.65;;;;;;;;;;4973740;28;20034;-71
2022/05/23 12:30:42;;;;;;;7.93;2.40;;;;;;;;;;4974085;28;20031;-71
2022/05/23 12:33:13;;;;;;;8.32;2.40;;;;;;;;;;4972364;28;20038;-71
2022/05/23 12:35:40;;;;;;;6.72;2.80;;;;;;;;;;4974112;28;20077;-71
2022/05/23 12:38:13;;;;;;;6.18;2.67;;;;;;;;;;4973749;28;20026;-71
2022/05/23 12:40:55;;;;;;;5.03;2.30;;;;;;;;;;4973680;28;20026;-71
2022/05/23 12:43:41;;;;;;;7.32;3.20;;;;;;;;;;4973904;28;20050;-71
2022/05/23 12:46:09;;;;;;;10.75;4.38;;;;;;;;;;4973984;28;20475;-71
2022/05/23 12:48:48;;;;;;;6.28;3.03;;;;;;;;;;4973982;28;20033;-72
2022/05/23 12:51:33;;;;;;;8.23;2.65;;;;;;;;;;4977347;28;20022;-71
2022/05/23 12:54:16;;;;;;;6.80;2.60;;;;;;;;;;4977092;28;20427;-72
2022/05/23 12:56:54;;;;;;;7.28;3.55;;;;;;;;;;4975769;28;20023;-71
2022/05/23 12:59:41;;;;;;;8.02;4.38;;;;;;;;;;4977143;28;20019;-72
2022/05/23 13:02:14;;;;;;;11.13;4.38;;;;;;;;;;4976973;28;20114;-72
2022/05/23 13:04:41;;;;;;;9.35;4.55;;;;;;;;;;4975391;28;20047;-71
2022/05/23 13:07:14;;;;;;;8.00;4.30;;;;;;;;;;4975532;28;20027;-72
2022/05/23 13:10:00;;;;;;;12.82;5.63;;;;;;;;;;4977061;28;20045;-71
2022/05/23 13:12:50;;;;;;;9.75;5.93;;;;;;;;;;4975410;28;20065;-71
2022/05/23 13:15:27;;;;;;;12.13;5.60;;;;;;;;;;4975550;28;20093;-71
2022/05/23 13:22:05;;;;;;;9.65;6.25;;;;;;;;;;4976929;28;20380;-72
2022/05/23 13:23:29;;;;;;;10.15;5.18;;;;;;;;;;4977003;28;20042;-72
2022/05/23 13:25:58;;;;;;;10.50;5.37;;;;;;;;;;4976623;28;20025;-72
2022/05/23 13:28:25;;;;;;;9.77;4.65;;;;;;;;;;4975290;28;20257;-72
2022/05/23 13:30:56;;;;;;;6.93;4.57;;;;;;;;;;4976451;28;20081;-72
2022/05/23 13:33:34;;;;;;;6.43;4.07;;;;;;;;;;4976464;28;20475;-72
2022/05/23 13:36:03;;;;;;;5.72;3.38;;;;;;;;;;4976619;28;20027;-72
2022/05/23 13:38:43;;;;;;;6.30;3.25;;;;;;;;;;4976384;28;20432;-72
2022/05/23 13:41:26;;;;;;;7.70;3.63;;;;;;;;;;4975089;28;20026;-72
2022/05/23 13:43:53;;;;;;;5.75;3.80;;;;;;;;;;4976551;28;20054;-72
2022/05/23 13:46:28;;;;;;;6.60;4.10;;;;;;;;;;4974985;28;20027;-72
2022/05/23 13:49:00;;;;;;;9.48;4.65;;;;;;;;;;4976266;28;20034;-71
2022/05/23 13:51:30;;;;;;;6.60;3.80;;;;;;;;;;4976248;28;20050;-72
2022/05/23 13:54:04;;;;;;;7.20;3.90;;;;;;;;;;4976381;28;20014;-72
2022/05/23 13:56:32;;;;;;;7.93;3.40;;;;;;;;;;4976314;28;20050;-72
2022/05/23 13:59:10;;;;;;;7.45;3.10;;;;;;;;;;4976227;28;20019;-72
2022/05/23 14:01:44;;;;;;;9.23;3.03;;;;;;;;;;4974261;28;20037;-72
2022/05/23 14:04:12;;;;;;;8.32;3.13;;;;;;;;;;4974415;28;20455;-72
2022/05/23 14:06:45;;;;;;;7.03;3.25;;;;;;;;;;4976020;28;20396;-71
2022/05/23 14:09:12;;;;;;;7.28;3.13;;;;;;;;;;4975993;28;20031;-72
2022/05/23 14:11:46;;;;;;;7.63;2.83;;;;;;;;;;4975942;28;20089;-71
2022/05/23 14:14:24;;;;;;;4.90;2.72;;;;;;;;;;4975853;28;20483;-72
2022/05/23 14:16:57;;;;;;;6.22;3.40;;;;;;;;;;4975607;28;20082;-72
2022/05/23 14:19:47;;;;;;;6.43;3.80;;;;;;;;;;4975726;28;20043;-72
2022/05/23 14:22:21;;;;;;;6.97;4.05;;;;;;;;;;4957111;28;20046;-72
2022/05/23 14:24:50;;;;;;;8.13;4.05;;;;;;;;;;4975817;28;20035;-72
2022/05/23 14:27:20;;;;;;;7.63;3.80;;;;;;;;;;4975765;28;20050;-73
2022/05/23 14:29:48;;;;;;;7.23;4.27;;;;;;;;;;4975676;28;20042;-73
2022/05/23 14:32:21;;;;;;;6.93;3.70;;;;;;;;;;4975366;28;20027;-72
2022/05/23 14:34:48;;;;;;;6.88;3.92;;;;;;;;;;4975505;28;20038;-72
2022/05/23 14:37:19;;;;;;;7.63;3.30;;;;;;;;;;4975442;28;20077;-72
2022/05/23 14:39:50;;;;;;;7.40;3.78;;;;;;;;;;4974031;28;20029;-72
2022/05/23 14:42:27;;;;;;;5.53;3.45;;;;;;;;;;4975301;28;20167;-73
2022/05/23 14:45:23;;;;;;;6.10;3.13;;;;;;;;;;4973846;28;20027;-73
2022/05/23 14:47:57;;;;;;;6.90;3.83;;;;;;;;;;4966453;28;20046;-72
2022/05/23 14:50:43;;;;;;;6.68;3.55;;;;;;;;;;4975022;28;20023;-73
2022/05/23 14:56:11;;;;;;;6.75;3.70;;;;;;;;;;4975059;28;20061;-72
2022/05/23 15:01:26;;;;;;;8.00;4.35;;;;;;;;;;4975108;28;20034;-72
2022/05/23 15:03:55;;;;;;;11.20;4.75;;;;;;;;;;4974486;28;20019;-72
2022/05/23 15:06:22;;;;;;;8.38;3.88;;;;;;;;;;4974878;28;20568;-72
2022/05/23 15:08:49;;;;;;;8.65;4.32;;;;;;;;;;4974864;28;20033;-72
2022/05/23 15:11:22;;;;;;;6.93;4.35;;;;;;;;;;4972910;28;20114;-72
2022/05/23 15:13:49;;;;;;;8.60;4.15;;;;;;;;;;4974616;28;20468;-72
2022/05/23 15:16:26;;;;;;;6.82;4.03;;;;;;;;;;4974573;28;20129;-72
2022/05/23 15:18:53;;;;;;;5.35;3.67;;;;;;;;;;4974624;28;20019;-72
2022/05/23 15:21:21;;;;;;;8.32;4.07;;;;;;;;;;4973171;28;20110;-72
2022/05/23 15:23:48;;;;;;;7.20;3.78;;;;;;;;;;4974710;28;20015;-72
2022/05/23 15:26:19;;;;;;;5.35;3.53;;;;;;;;;;4974656;28;20142;-72
2022/05/23 15:28:46;;;;;;;5.75;3.47;;;;;;;;;;4973086;28;20101;-72
2022/05/23 15:31:14;;;;;;;5.40;3.85;;;;;;;;;;4972934;28;20027;-72
2022/05/23 15:33:42;;;;;;;11.88;4.03;;;;;;;;;;4974218;28;20069;-72
2022/05/23 15:36:09;;;;;;;4.68;3.85;;;;;;;;;;4974223;28;20042;-71
2022/05/23 15:38:36;;;;;;;8.05;3.95;;;;;;;;;;4972986;28;20139;-72
2022/05/23 15:41:04;;;;;;;7.38;3.80;;;;;;;;;;4974228;28;20475;-72
2022/05/23 15:43:32;;;;;;;7.90;4.43;;;;;;;;;;4972869;28;20061;-72
2022/05/23 15:45:59;;;;;;;6.65;4.05;;;;;;;;;;4974176;28;20046;-72
2022/05/23 15:48:26;;;;;;;7.40;4.22;;;;;;;;;;4972801;28;20522;-72
2022/05/23 15:50:53;;;;;;;6.90;3.80;;;;;;;;;;4974409;28;20027;-71
2022/05/23 15:53:21;;;;;;;8.90;3.63;;;;;;;;;;4974078;28;20022;-71
2022/05/23 15:55:52;;;;;;;8.07;3.70;;;;;;;;;;4974188;28;20427;-71
2022/05/23 15:58:20;;;;;;;6.32;3.53;;;;;;;;;;4974333;28;20023;-71
2022/05/23 16:00:48;;;;;;;7.65;3.78;;;;;;;;;;4974256;28;20019;-71
2022/05/23 16:03:15;;;;;;;7.03;3.70;;;;;;;;;;4973983;28;20026;-71
2022/05/23 16:05:44;;;;;;;6.55;4.22;;;;;;;;;;4973742;28;20416;-71